Time;durP1;ratioP1;P1;durP2;ratioP2;P2;SDS_P1;SDS_P2;PMS_P1;PMS_P2;Temp;Humidity;BMP_temperature;BMP_pressure;BME280_temperature;BME280_humidity;BME280_pressure;Samples;Min_cycle;Max_cycle;Signal;HPM_P1;HPM_P2
2023/08/01 00:00:12;;;;;;;;;;;18.20;86.60;;;;;;4956018;28;19926;-68
2023/08/01 00:02:42;;;;;;;;;;;18.20;86.50;;;;;;4956432;28;19934;-69
2023/08/01 00:05:10;;;;;;;;;;;18.20;86.40;;;;;;4958157;28;20006;-69
2023/08/01 00:07:38;;;;;;;;;;;18.20;86.70;;;;;;4956979;28;19993;-68
2023/08/01 00:10:11;;;;;;;;;;;18.20;86.80;;;;;;4958068;28;19926;-69
2023/08/01 00:12:41;;;;;;;;;;;18.20;86.70;;;;;;4958588;28;19926;-68
2023/08/01 00:15:12;;;;;;;;;;;18.10;87.00;;;;;;4961373;28;19942;-69
2023/08/01 00:17:44;;;;;;;;;;;18.20;86.80;;;;;;4958916;28;19927;-68
2023/08/01 00:20:15;;;;;;;;;;;18.20;86.90;;;;;;4953909;28;19927;-68
2023/08/01 00:22:42;;;;;;;;;;;18.20;86.80;;;;;;4957538;28;19937;-68
2023/08/01 00:25:10;;;;;;;;;;;18.10;86.90;;;;;;4958624;28;19930;-68
2023/08/01 00:27:37;;;;;;;;;;;18.20;86.80;;;;;;4958442;28;20053;-71
2023/08/01 00:30:07;;;;;;;;;;;18.20;87.10;;;;;;4955877;28;19934;-72
2023/08/01 00:32:36;;;;;;;;;;;18.10;87.20;;;;;;4953341;28;19954;-71
2023/08/01 00:35:05;;;;;;;;;;;18.10;86.90;;;;;;4958848;28;19934;-69
2023/08/01 00:37:33;;;;;;;;;;;18.20;86.90;;;;;;4951087;28;20436;-71
2023/08/01 00:40:00;;;;;;;;;;;18.10;87.00;;;;;;4959320;28;20005;-71
2023/08/01 00:42:28;;;;;;;;;;;18.10;87.10;;;;;;4974641;28;19934;-71
2023/08/01 00:44:55;;;;;;;;;;;18.10;87.30;;;;;;4961849;28;19926;-71
2023/08/01 00:47:25;;;;;;;;;;;18.00;87.50;;;;;;4966428;28;19926;-71
2023/08/01 00:49:52;;;;;;;;;;;18.00;87.70;;;;;;4978127;28;20923;-71
2023/08/01 00:52:19;;;;;;;;;;;18.00;87.70;;;;;;4962375;28;20292;-71
2023/08/01 00:54:46;;;;;;;;;;;18.10;87.60;;;;;;4959169;28;19974;-72
2023/08/01 00:57:13;;;;;;;;;;;18.10;87.60;;;;;;4959902;28;20295;-72
2023/08/01 00:59:41;;;;;;;;;;;18.00;87.60;;;;;;4962371;28;19937;-71
2023/08/01 01:02:37;;;;;;;;;;;18.00;87.80;;;;;;4955402;28;19959;-72
2023/08/01 01:05:08;;;;;;;;;;;18.00;87.70;;;;;;4960049;28;19949;-72
2023/08/01 01:07:35;;;;;;;;;;;18.00;87.80;;;;;;4955268;28;19942;-71
2023/08/01 01:10:04;;;;;;;;;;;18.00;87.70;;;;;;4964390;28;20627;-71
2023/08/01 01:12:31;;;;;;;;;;;18.10;87.60;;;;;;4957020;28;19926;-72
2023/08/01 01:15:01;;;;;;;;;;;18.10;87.60;;;;;;4960755;28;20029;-70
2023/08/01 01:17:28;;;;;;;;;;;18.10;87.60;;;;;;4959463;28;19930;-71
2023/08/01 01:19:55;;;;;;;;;;;18.10;87.70;;;;;;4976372;28;19937;-70
2023/08/01 01:22:25;;;;;;;;;;;18.00;87.80;;;;;;4963215;28;20029;-72
2023/08/01 01:24:53;;;;;;;;;;;18.00;87.60;;;;;;4975781;28;20390;-73
2023/08/01 01:27:20;;;;;;;;;;;18.00;87.70;;;;;;4965011;28;20497;-72
2023/08/01 01:29:48;;;;;;;;;;;18.00;87.90;;;;;;4956007;28;19934;-72
2023/08/01 01:32:15;;;;;;;;;;;18.00;87.90;;;;;;4965288;28;19927;-71
2023/08/01 01:34:48;;;;;;;;;;;18.00;87.90;;;;;;4962629;28;19935;-72
2023/08/01 01:37:16;;;;;;;;;;;18.00;87.80;;;;;;4949853;28;19927;-67
2023/08/01 01:39:45;;;;;;;;;;;18.10;87.50;;;;;;4944710;28;19927;-67
2023/08/01 01:42:13;;;;;;;;;;;18.10;87.70;;;;;;4959031;28;19926;-68
2023/08/01 01:44:40;;;;;;;;;;;18.10;87.60;;;;;;4961231;28;19930;-67
2023/08/01 01:47:10;;;;;;;;;;;18.10;87.80;;;;;;4959063;28;20021;-68
2023/08/01 01:49:38;;;;;;;;;;;18.10;88.10;;;;;;4957695;28;20339;-66
2023/08/01 01:52:07;;;;;;;;;;;18.10;88.10;;;;;;4949513;28;19930;-68
2023/08/01 01:54:35;;;;;;;;;;;18.00;88.40;;;;;;4956530;28;19926;-67
2023/08/01 01:57:03;;;;;;;;;;;18.00;88.10;;;;;;4956910;28;19930;-68
2023/08/01 01:59:32;;;;;;;;;;;18.10;88.20;;;;;;4961786;28;19930;-66
2023/08/01 02:02:00;;;;;;;;;;;18.00;88.20;;;;;;4948100;28;20333;-66
2023/08/01 02:04:27;;;;;;;;;;;18.00;88.00;;;;;;4961640;28;20354;-67
2023/08/01 02:06:54;;;;;;;;;;;18.10;88.40;;;;;;4961257;28;20013;-67
2023/08/01 02:09:22;;;;;;;;;;;18.10;88.20;;;;;;4973645;28;20395;-67
2023/08/01 02:11:49;;;;;;;;;;;18.10;88.20;;;;;;4961899;28;20021;-68
2023/08/01 02:14:20;;;;;;;;;;;18.00;88.20;;;;;;4961324;28;20012;-67
2023/08/01 02:16:52;;;;;;;;;;;18.10;88.40;;;;;;4958798;28;20394;-67
2023/08/01 02:19:19;;;;;;;;;;;18.00;88.40;;;;;;4961816;28;19953;-66
2023/08/01 02:21:46;;;;;;;;;;;18.00;88.40;;;;;;4960540;28;20460;-66
2023/08/01 02:24:13;;;;;;;;;;;18.00;88.60;;;;;;4960586;28;20493;-68
2023/08/01 02:26:42;;;;;;;;;;;18.00;88.40;;;;;;4956154;28;19937;-67
2023/08/01 02:29:10;;;;;;;;;;;18.00;88.60;;;;;;4961751;28;20278;-64
2023/08/01 02:31:38;;;;;;;;;;;18.00;88.40;;;;;;4956307;28;19927;-66
2023/08/01 02:34:05;;;;;;;;;;;18.00;88.60;;;;;;4960114;28;20025;-67
2023/08/01 02:36:33;;;;;;;;;;;18.00;88.60;;;;;;4960115;28;19977;-66
2023/08/01 02:39:00;;;;;;;;;;;18.00;88.50;;;;;;4960930;28;19986;-66
2023/08/01 02:41:27;;;;;;;;;;;18.10;88.50;;;;;;4961663;28;19976;-67
2023/08/01 02:43:55;;;;;;;;;;;18.00;88.70;;;;;;4961612;28;20005;-67
2023/08/01 02:46:26;;;;;;;;;;;17.90;88.90;;;;;;4962007;28;19930;-72
2023/08/01 02:48:56;;;;;;;;;;;18.00;88.70;;;;;;4957611;28;19952;-73
2023/08/01 02:51:23;;;;;;;;;;;18.00;88.90;;;;;;4960766;28;19933;-73
2023/08/01 02:53:50;;;;;;;;;;;18.00;89.00;;;;;;4962473;28;19941;-73
2023/08/01 02:56:18;;;;;;;;;;;17.90;89.00;;;;;;4959440;28;20025;-73
2023/08/01 02:58:48;;;;;;;;;;;18.00;88.80;;;;;;4963121;28;19927;-74
2023/08/01 03:01:15;;;;;;;;;;;18.00;89.00;;;;;;4938830;28;19931;-73
2023/08/01 03:03:45;;;;;;;;;;;18.00;88.70;;;;;;4957713;28;19926;-74
2023/08/01 03:06:19;;;;;;;;;;;18.00;88.70;;;;;;4960312;28;19931;-73
2023/08/01 03:08:47;;;;;;;;;;;18.00;88.70;;;;;;4972948;28;19926;-73
2023/08/01 03:11:16;;;;;;;;;;;18.00;88.80;;;;;;4960234;28;19937;-73
2023/08/01 03:13:43;;;;;;;;;;;18.10;88.60;;;;;;4957206;28;20041;-73
2023/08/01 03:16:11;;;;;;;;;;;18.10;88.70;;;;;;4959448;28;19935;-72
2023/08/01 03:18:40;;;;;;;;;;;18.10;88.80;;;;;;4959681;28;19936;-72
2023/08/01 03:21:08;;;;;;;;;;;18.00;88.80;;;;;;4956343;28;20350;-72
2023/08/01 03:23:36;;;;;;;;;;;18.10;88.70;;;;;;4957604;28;19927;-74
2023/08/01 03:26:06;;;;;;;;;;;18.00;89.00;;;;;;4962722;28;20013;-72
2023/08/01 03:28:37;;;;;;;;;;;18.00;88.80;;;;;;4959346;28;19949;-73
2023/08/01 03:31:05;;;;;;;;;;;18.10;88.70;;;;;;4943590;28;20298;-73
2023/08/01 03:33:33;;;;;;;;;;;18.10;88.70;;;;;;4945967;28;19927;-74
2023/08/01 03:36:02;;;;;;;;;;;18.00;88.80;;;;;;4945992;28;20064;-73
2023/08/01 03:38:32;;;;;;;;;;;18.10;88.80;;;;;;4952667;28;19931;-72
2023/08/01 03:41:03;;;;;;;;;;;17.90;89.00;;;;;;4956737;28;19957;-73
2023/08/01 03:43:31;;;;;;;;;;;18.00;88.90;;;;;;4959080;28;19973;-74
2023/08/01 03:45:58;;;;;;;;;;;18.00;88.90;;;;;;4962158;28;19958;-73
2023/08/01 03:48:25;;;;;;;;;;;18.00;88.90;;;;;;4958425;28;19958;-73
2023/08/01 03:50:52;;;;;;;;;;;18.00;89.10;;;;;;4958508;28;20033;-72
2023/08/01 03:53:20;;;;;;;;;;;18.00;89.30;;;;;;4973952;28;19933;-73
2023/08/01 03:55:48;;;;;;;;;;;18.00;89.30;;;;;;4950851;28;24482;-68
2023/08/01 03:58:20;;;;;;;;;;;18.00;89.20;;;;;;4950359;28;19937;-67
2023/08/01 04:00:59;;;;;;;;;;;17.90;89.40;;;;;;4952985;28;19927;-67
2023/08/01 04:03:41;;;;;;;;;;;18.00;89.40;;;;;;4957295;28;19937;-67
2023/08/01 04:06:09;;;;;;;;;;;18.00;89.30;;;;;;4957784;28;19937;-68
2023/08/01 04:08:36;;;;;;;;;;;18.00;89.40;;;;;;4958230;28;19930;-67
2023/08/01 04:11:03;;;;;;;;;;;18.00;89.40;;;;;;4959771;28;19934;-68
2023/08/01 04:13:40;;;;;;;;;;;18.00;89.30;;;;;;4956583;28;19940;-68
2023/08/01 04:16:17;;;;;;;;;;;18.00;89.40;;;;;;4957753;28;19961;-67
2023/08/01 04:18:44;;;;;;;;;;;18.00;89.50;;;;;;4958024;28;19927;-67
2023/08/01 04:21:13;;;;;;;;;;;17.90;89.60;;;;;;4958801;28;19935;-67
2023/08/01 04:23:40;;;;;;;;;;;17.90;89.60;;;;;;4959864;28;21140;-68
2023/08/01 04:26:11;;;;;;;;;;;17.90;89.40;;;;;;4959118;28;19930;-68
2023/08/01 04:28:44;;;;;;;;;;;18.00;89.50;;;;;;4947059;28;19961;-67
2023/08/01 04:31:11;;;;;;;;;;;17.90;89.40;;;;;;4944569;28;20007;-68
2023/08/01 04:33:38;;;;;;;;;;;18.00;89.30;;;;;;4950165;28;19936;-67
2023/08/01 04:36:06;;;;;;;;;;;18.00;89.30;;;;;;4941628;28;19933;-67
2023/08/01 04:38:34;;;;;;;;;;;17.90;89.50;;;;;;4960342;28;19934;-67
2023/08/01 04:41:06;;;;;;;;;;;18.00;89.70;;;;;;4960543;28;20294;-68
2023/08/01 04:43:36;;;;;;;;;;;17.90;89.40;;;;;;4958438;28;20309;-67
2023/08/01 04:46:06;;;;;;;;;;;17.90;89.60;;;;;;4954864;28;19946;-68
2023/08/01 04:48:40;;;;;;;;;;;17.90;89.50;;;;;;4945262;28;19950;-69
2023/08/01 04:51:09;;;;;;;;;;;18.00;89.70;;;;;;4958848;28;19936;-68
2023/08/01 04:53:37;;;;;;;;;;;18.00;89.50;;;;;;4960905;28;20017;-68
2023/08/01 04:56:06;;;;;;;;;;;18.00;89.50;;;;;;4959192;28;19930;-68
2023/08/01 04:58:33;;;;;;;;;;;18.00;89.50;;;;;;4959354;28;20333;-67
2023/08/01 05:01:00;;;;;;;;;;;18.00;89.40;;;;;;4954092;28;20026;-67
2023/08/01 05:03:32;;;;;;;;;;;18.00;89.50;;;;;;4958660;28;20033;-67
2023/08/01 05:06:04;;;;;;;;;;;18.00;89.50;;;;;;4951512;28;20354;-63
2023/08/01 05:08:34;;;;;;;;;;;18.00;89.50;;;;;;4944392;28;19986;-63
2023/08/01 05:11:03;;;;;;;;;;;18.00;89.60;;;;;;4958842;28;19962;-63
2023/08/01 05:13:35;;;;;;;;;;;18.00;89.50;;;;;;4956586;28;20679;-63
2023/08/01 05:16:03;;;;;;;;;;;18.00;89.50;;;;;;4955478;28;19993;-63
2023/08/01 05:18:33;;;;;;;;;;;17.90;89.60;;;;;;4957364;28;20412;-62
2023/08/01 05:21:02;;;;;;;;;;;18.00;89.60;;;;;;4952309;28;19941;-63
2023/08/01 05:23:32;;;;;;;;;;;18.00;89.60;;;;;;4953399;28;19934;-62
2023/08/01 05:26:03;;;;;;;;;;;18.00;89.70;;;;;;4978359;28;20905;-63
2023/08/01 05:28:32;;;;;;;;;;;18.00;89.60;;;;;;4962286;28;19926;-63
2023/08/01 05:30:59;;;;;;;;;;;18.00;89.50;;;;;;4952664;28;19926;-64
2023/08/01 05:33:28;;;;;;;;;;;18.00;89.70;;;;;;4951429;28;20000;-63
2023/08/01 05:35:58;;;;;;;;;;;17.90;89.70;;;;;;4951884;28;20313;-62
2023/08/01 05:38:25;;;;;;;;;;;17.90;89.70;;;;;;4961067;28;19937;-63
2023/08/01 05:40:52;;;;;;;;;;;17.90;89.70;;;;;;4959599;28;19930;-63
2023/08/01 05:43:20;;;;;;;;;;;17.90;89.70;;;;;;4960609;28;19989;-63
2023/08/01 05:45:52;;;;;;;;;;;17.90;89.60;;;;;;4961538;28;19933;-65
2023/08/01 05:48:22;;;;;;;;;;;17.90;89.60;;;;;;4961575;28;19941;-63
2023/08/01 05:50:49;;;;;;;;;;;17.90;89.50;;;;;;4960775;28;21737;-63
2023/08/01 05:53:18;;;;;;;;;;;17.90;89.50;;;;;;4959230;28;19934;-63
2023/08/01 05:55:46;;;;;;;;;;;18.00;89.50;;;;;;4959482;28;20021;-63
2023/08/01 05:58:13;;;;;;;;;;;17.90;89.60;;;;;;4958861;28;19934;-64
2023/08/01 06:00:44;;;;;;;;;;;17.90;89.60;;;;;;4954526;28;19926;-63
2023/08/01 06:03:34;;;;;;;;;;;17.90;89.50;;;;;;4955557;28;20025;-63
2023/08/01 06:06:01;;;;;;;;;;;17.90;89.50;;;;;;4956517;28;19930;-63
2023/08/01 06:08:30;;;;;;;;;;;18.00;89.50;;;;;;4958133;28;19930;-63
2023/08/01 06:10:57;;;;;;;;;;;18.00;89.50;;;;;;4946298;28;19934;-64
2023/08/01 06:13:30;;;;;;;;;;;18.00;89.50;;;;;;4955126;28;19935;-63
2023/08/01 06:15:59;;;;;;;;;;;18.00;89.40;;;;;;4959734;28;19934;-63
2023/08/01 06:18:28;;;;;;;;;;;17.90;89.50;;;;;;4958486;28;20270;-63
2023/08/01 06:20:58;;;;;;;;;;;17.90;89.30;;;;;;4962196;28;19989;-63
2023/08/01 06:23:28;;;;;;;;;;;17.90;89.30;;;;;;4961216;28;19930;-62
2023/08/01 06:26:08;;;;;;;;;;;17.90;89.10;;;;;;4960531;28;20233;-63
2023/08/01 06:28:46;;;;;;;;;;;17.90;89.10;;;;;;4960109;28;19949;-64
2023/08/01 06:31:13;;;;;;;;;;;17.90;89.10;;;;;;4952508;28;19930;-62
2023/08/01 06:33:40;;;;;;;;;;;17.90;89.10;;;;;;4951260;28;19958;-63
2023/08/01 06:36:16;;;;;;;;;;;17.90;89.20;;;;;;4959272;28;19962;-64
2023/08/01 06:38:44;;;;;;;;;;;17.90;89.20;;;;;;4959745;28;19927;-63
2023/08/01 06:41:15;;;;;;;;;;;17.80;89.00;;;;;;4959818;28;19926;-63
2023/08/01 06:43:44;;;;;;;;;;;17.90;89.00;;;;;;4959120;28;19934;-64
2023/08/01 06:46:14;;;;;;;;;;;17.80;89.00;;;;;;4958851;28;19973;-63
2023/08/01 06:48:42;;;;;;;;;;;17.80;89.10;;;;;;4959728;28;20329;-63
2023/08/01 06:51:11;;;;;;;;;;;17.80;89.20;;;;;;4955604;28;20021;-64
2023/08/01 06:53:39;;;;;;;;;;;17.80;89.20;;;;;;4963329;28;19931;-62
2023/08/01 06:56:06;;;;;;;;;;;17.80;89.20;;;;;;4957820;28;19934;-64
2023/08/01 06:58:36;;;;;;;;;;;17.80;89.40;;;;;;4959633;28;19960;-63
2023/08/01 07:01:05;;;;;;;;;;;17.80;89.40;;;;;;4952534;28;19930;-63
2023/08/01 07:03:33;;;;;;;;;;;17.80;89.40;;;;;;4955681;28;19955;-65
2023/08/01 07:06:05;;;;;;;;;;;17.80;89.50;;;;;;4957019;28;19973;-63
2023/08/01 07:08:37;;;;;;;;;;;17.80;89.40;;;;;;4942185;28;19931;-62
2023/08/01 07:11:04;;;;;;;;;;;17.80;89.30;;;;;;4955071;28;19982;-64
2023/08/01 07:13:31;;;;;;;;;;;17.80;89.40;;;;;;4959471;28;20342;-63
2023/08/01 07:16:05;;;;;;;;;;;17.90;89.30;;;;;;4956973;28;19990;-63
2023/08/01 07:18:34;;;;;;;;;;;17.90;89.40;;;;;;4959233;28;19938;-64
2023/08/01 07:21:04;;;;;;;;;;;17.90;89.30;;;;;;4959006;28;20028;-65
2023/08/01 07:23:31;;;;;;;;;;;17.90;89.20;;;;;;4957977;28;19926;-62
2023/08/01 07:25:58;;;;;;;;;;;18.00;89.10;;;;;;4952796;28;19961;-71
2023/08/01 07:28:26;;;;;;;;;;;17.90;89.00;;;;;;4959082;28;19934;-71
2023/08/01 07:31:05;;;;;;;;;;;18.00;89.00;;;;;;4958638;28;20029;-71
2023/08/01 07:33:37;;;;;;;;;;;18.00;89.10;;;;;;4946337;28;20786;-71
2023/08/01 07:36:06;;;;;;;;;;;18.00;88.70;;;;;;4955570;28;19934;-71
2023/08/01 07:38:35;;;;;;;;;;;18.00;88.30;;;;;;4956469;28;20024;-71
2023/08/01 07:41:03;;;;;;;;;;;18.00;88.50;;;;;;4959254;28;19934;-71
2023/08/01 07:43:32;;;;;;;;;;;18.00;88.30;;;;;;4958352;28;20009;-71
2023/08/01 07:46:08;;;;;;;;;;;18.10;88.20;;;;;;4957224;28;19930;-71
2023/08/01 07:48:42;;;;;;;;;;;18.10;88.10;;;;;;4957845;28;19973;-70
2023/08/01 07:51:12;;;;;;;;;;;18.10;88.20;;;;;;4959597;28;19937;-70
2023/08/01 07:53:40;;;;;;;;;;;18.20;88.20;;;;;;4956535;28;19930;-71
2023/08/01 07:56:10;;;;;;;;;;;18.20;88.20;;;;;;4958345;28;20033;-69
2023/08/01 07:58:45;;;;;;;;;;;18.20;88.10;;;;;;4960527;28;19949;-70
2023/08/01 08:01:17;;;;;;;;;;;18.30;87.80;;;;;;4952746;28;20907;-71
2023/08/01 08:03:48;;;;;;;;;;;18.30;87.60;;;;;;4958569;28;20385;-71
2023/08/01 08:06:21;;;;;;;;;;;18.30;87.90;;;;;;4959193;28;19926;-71
2023/08/01 08:08:52;;;;;;;;;;;18.40;87.20;;;;;;4951279;28;19966;-71
2023/08/01 08:11:24;;;;;;;;;;;18.30;86.70;;;;;;4955760;28;19940;-71
2023/08/01 08:13:55;;;;;;;;;;;18.30;86.30;;;;;;4958405;28;19980;-72
2023/08/01 08:16:27;;;;;;;;;;;18.40;86.10;;;;;;4957354;28;19996;-71
2023/08/01 08:18:56;;;;;;;;;;;18.30;85.60;;;;;;4957918;28;19941;-71
2023/08/01 08:21:23;;;;;;;;;;;18.40;85.60;;;;;;4958799;28;19930;-71
2023/08/01 08:23:52;;;;;;;;;;;18.40;85.70;;;;;;4952001;28;19992;-71
2023/08/01 08:26:23;;;;;;;;;;;18.40;86.10;;;;;;4959405;28;19934;-71
2023/08/01 08:28:57;;;;;;;;;;;18.40;85.90;;;;;;4955789;28;19940;-70
2023/08/01 08:31:27;;;;;;;;;;;18.40;85.80;;;;;;4959728;28;19930;-71
2023/08/01 08:33:56;;;;;;;;;;;18.40;86.00;;;;;;4955406;28;19934;-71
2023/08/01 08:36:26;;;;;;;;;;;18.40;86.10;;;;;;4965161;28;20013;-71
2023/08/01 08:38:58;;;;;;;;;;;18.30;86.50;;;;;;4959107;28;19937;-71
2023/08/01 08:41:31;;;;;;;;;;;18.30;86.80;;;;;;4955314;28;20424;-71
2023/08/01 08:44:00;;;;;;;;;;;18.30;86.80;;;;;;4957597;28;19926;-71
2023/08/01 08:46:37;;;;;;;;;;;18.40;87.10;;;;;;4956531;28;19969;-71
2023/08/01 08:49:10;;;;;;;;;;;18.50;86.90;;;;;;4956617;28;19934;-71
2023/08/01 08:51:44;;;;;;;;;;;18.60;86.40;;;;;;4956166;28;20502;-72
2023/08/01 08:54:21;;;;;;;;;;;18.80;86.60;;;;;;4958680;28;19934;-70
2023/08/01 08:56:52;;;;;;;;;;;18.90;86.40;;;;;;4956744;28;20293;-71
2023/08/01 08:59:21;;;;;;;;;;;19.10;86.30;;;;;;4958562;28;19926;-71
2023/08/01 09:04:55;;;;;;;;;;;19.40;84.90;;;;;;4960615;28;19961;-72
2023/08/01 09:07:41;;;;;;;;;;;19.80;83.90;;;;;;4960538;28;19926;-71
2023/08/01 09:10:23;;;;;;;;;;;19.80;83.20;;;;;;4963309;28;20004;-72
2023/08/01 09:15:48;;;;;;;;;;;19.90;82.10;;;;;;4957984;28;19986;-65
2023/08/01 09:18:20;;;;;;;;;;;19.80;82.00;;;;;;4959071;28;20524;-62
2023/08/01 09:21:02;;;;;;;;;;;19.80;82.40;;;;;;4960601;28;19931;-63
2023/08/01 09:23:38;;;;;;;;;;;20.00;81.90;;;;;;4950283;28;19934;-63
2023/08/01 09:26:16;;;;;;;;;;;20.10;81.90;;;;;;4958515;28;19948;-64
2023/08/01 09:28:59;;;;;;;;;;;20.20;80.80;;;;;;4958387;28;19938;-64
2023/08/01 09:31:38;;;;;;;;;;;20.10;80.40;;;;;;4957208;28;19941;-62
2023/08/01 09:34:24;;;;;;;;;;;20.00;80.10;;;;;;4957833;28;19977;-64
2023/08/01 09:37:03;;;;;;;;;;;20.00;80.50;;;;;;4956879;28;20029;-63
2023/08/01 09:39:39;;;;;;;;;;;20.00;80.60;;;;;;4960616;28;20342;-63
2023/08/01 09:42:13;;;;;;;;;;;19.90;80.70;;;;;;4959007;28;20022;-64
2023/08/01 09:44:50;;;;;;;;;;;19.90;80.70;;;;;;4961274;28;20398;-63
2023/08/01 09:47:20;;;;;;;;;;;20.00;81.10;;;;;;4960738;28;19941;-62
2023/08/01 09:50:02;;;;;;;;;;;20.30;80.40;;;;;;4961861;28;19930;-61
2023/08/01 09:52:38;;;;;;;;;;;20.30;80.00;;;;;;4958744;28;19935;-62
2023/08/01 09:55:12;;;;;;;;;;;20.40;80.60;;;;;;4961678;28;19926;-63
2023/08/01 09:57:45;;;;;;;;;;;20.50;80.40;;;;;;4962672;28;19930;-63
2023/08/01 10:00:14;;;;;;;;;;;20.60;80.20;;;;;;4962394;28;19926;-64
2023/08/01 10:02:48;;;;;;;;;;;20.90;79.00;;;;;;4962938;28;20387;-62
2023/08/01 10:05:21;;;;;;;;;;;21.00;77.40;;;;;;4948426;28;19943;-64
2023/08/01 10:07:58;;;;;;;;;;;21.20;77.10;;;;;;4964206;28;20308;-64
2023/08/01 10:10:31;;;;;;;;;;;21.30;76.40;;;;;;4958393;28;19930;-64
2023/08/01 10:13:04;;;;;;;;;;;21.30;76.30;;;;;;4963347;28;19965;-63
2023/08/01 10:15:34;;;;;;;;;;;21.50;76.00;;;;;;4951782;28;19930;-63
2023/08/01 10:18:02;;;;;;;;;;;21.70;76.20;;;;;;4943010;28;19927;-63
2023/08/01 10:20:31;;;;;;;;;;;22.00;75.80;;;;;;4956327;28;20360;-64
2023/08/01 10:23:00;;;;;;;;;;;22.10;74.50;;;;;;4952611;28;20013;-64
2023/08/01 10:25:31;;;;;;;;;;;22.10;75.00;;;;;;4952170;28;19934;-65
2023/08/01 10:28:05;;;;;;;;;;;22.20;74.70;;;;;;4953844;28;19930;-71
2023/08/01 10:30:37;;;;;;;;;;;22.20;74.30;;;;;;4934772;28;19986;-70
2023/08/01 10:33:12;;;;;;;;;;;22.00;73.60;;;;;;4959848;28;19941;-71
2023/08/01 10:35:47;;;;;;;;;;;21.80;72.60;;;;;;4951379;28;19926;-71
2023/08/01 10:38:15;;;;;;;;;;;21.70;73.10;;;;;;4952383;28;19934;-72
2023/08/01 10:40:45;;;;;;;;;;;21.60;73.30;;;;;;4951787;28;19976;-71
2023/08/01 10:43:22;;;;;;;;;;;21.50;73.70;;;;;;4951126;28;19927;-71
2023/08/01 10:46:02;;;;;;;;;;;21.60;73.00;;;;;;4952850;28;19930;-71
2023/08/01 10:48:30;;;;;;;;;;;21.60;72.70;;;;;;4939928;28;19958;-71
2023/08/01 10:50:59;;;;;;;;;;;21.60;72.30;;;;;;4948240;28;19933;-70
2023/08/01 10:53:26;;;;;;;;;;;21.50;72.50;;;;;;4945779;28;20396;-72
2023/08/01 10:55:53;;;;;;;;;;;21.40;72.10;;;;;;4951824;28;19927;-72
2023/08/01 10:58:28;;;;;;;;;;;21.30;72.10;;;;;;4951951;28;19927;-71
2023/08/01 11:00:58;;;;;;;;;;;21.30;71.60;;;;;;4950905;28;20310;-72
2023/08/01 11:03:35;;;;;;;;;;;21.20;71.50;;;;;;4951492;28;19937;-71
2023/08/01 11:06:04;;;;;;;;;;;21.10;70.70;;;;;;4952709;28;19933;-71
2023/08/01 11:08:34;;;;;;;;;;;21.00;71.00;;;;;;4951299;28;19930;-71
2023/08/01 11:11:03;;;;;;;;;;;20.90;70.90;;;;;;4952289;28;20448;-72
2023/08/01 11:13:31;;;;;;;;;;;20.90;71.40;;;;;;4943586;28;21721;-72
2023/08/01 11:15:58;;;;;;;;;;;20.80;71.60;;;;;;4952621;28;19927;-72
2023/08/01 11:18:26;;;;;;;;;;;20.70;72.10;;;;;;4950698;28;19966;-72
2023/08/01 11:20:54;;;;;;;;;;;20.60;72.00;;;;;;4952426;28;19972;-71
2023/08/01 11:23:29;;;;;;;;;;;20.40;72.10;;;;;;4950498;28;19934;-72
2023/08/01 11:25:59;;;;;;;;;;;20.30;71.90;;;;;;4952034;28;20378;-72
2023/08/01 11:28:26;;;;;;;;;;;20.30;72.60;;;;;;4950860;28;20050;-72
2023/08/01 11:30:55;;;;;;;;;;;20.40;73.00;;;;;;4951396;28;20358;-72
2023/08/01 11:33:24;;;;;;;;;;;20.50;73.40;;;;;;4951158;28;19986;-70
2023/08/01 11:35:53;;;;;;;;;;;20.50;73.30;;;;;;4951102;28;19926;-68
2023/08/01 11:38:22;;;;;;;;;;;20.80;73.00;;;;;;4951036;28;20393;-68
2023/08/01 11:40:51;;;;;;;;;;;21.10;73.00;;;;;;4951582;28;19930;-68
2023/08/01 11:43:18;;;;;;;;;;;21.30;72.50;;;;;;4950806;28;19926;-68
2023/08/01 11:45:54;;;;;;;;;;;21.60;71.60;;;;;;4952319;28;20033;-70
2023/08/01 11:48:22;;;;;;;;;;;21.80;71.20;;;;;;4950157;28;19930;-68
2023/08/01 11:50:49;;;;;;;;;;;22.00;71.50;;;;;;4965210;28;19927;-68
2023/08/01 11:53:20;;;;;;;;;;;21.80;70.60;;;;;;4950531;28;19970;-69
2023/08/01 11:55:51;;;;;;;;;;;21.80;69.80;;;;;;4951247;28;19927;-68
2023/08/01 11:58:30;;;;;;;;;;;21.80;69.50;;;;;;4950085;28;19926;-68
2023/08/01 12:01:06;;;;;;;;;;;21.80;69.70;;;;;;4950121;28;19926;-67
2023/08/01 12:03:43;;;;;;;;;;;21.70;69.10;;;;;;4950980;28;20001;-69
2023/08/01 12:06:11;;;;;;;;;;;21.60;68.80;;;;;;4942805;28;19926;-67
2023/08/01 12:08:39;;;;;;;;;;;21.60;69.30;;;;;;4951158;28;19926;-69
2023/08/01 12:11:18;;;;;;;;;;;21.60;69.90;;;;;;4950260;28;19966;-68
2023/08/01 12:13:46;;;;;;;;;;;21.60;69.90;;;;;;4950312;28;19956;-68
2023/08/01 12:16:19;;;;;;;;;;;21.60;69.60;;;;;;4951382;28;20735;-68
2023/08/01 12:18:49;;;;;;;;;;;21.70;69.70;;;;;;4951057;28;19962;-68
2023/08/01 12:21:17;;;;;;;;;;;21.80;69.90;;;;;;4950592;28;20025;-68
2023/08/01 12:23:44;;;;;;;;;;;21.90;70.00;;;;;;4950793;28;19938;-68
2023/08/01 12:26:16;;;;;;;;;;;21.90;69.70;;;;;;4950912;28;19931;-66
2023/08/01 12:28:47;;;;;;;;;;;21.90;68.90;;;;;;4949666;28;20001;-68
2023/08/01 12:31:16;;;;;;;;;;;22.10;69.10;;;;;;4950526;28;20457;-68
2023/08/01 12:33:43;;;;;;;;;;;22.20;68.30;;;;;;4953324;28;19927;-68
2023/08/01 12:36:12;;;;;;;;;;;22.20;67.80;;;;;;4967239;28;20390;-67
2023/08/01 12:38:39;;;;;;;;;;;22.30;68.00;;;;;;4954510;28;19936;-67
2023/08/01 12:41:07;;;;;;;;;;;22.50;67.20;;;;;;4954345;28;20010;-68
2023/08/01 12:43:34;;;;;;;;;;;22.50;67.00;;;;;;4954331;28;19930;-67
2023/08/01 12:46:03;;;;;;;;;;;22.40;67.80;;;;;;4955051;28;19926;-72
2023/08/01 12:48:32;;;;;;;;;;;22.40;67.20;;;;;;4954343;28;19931;-72
2023/08/01 12:50:59;;;;;;;;;;;22.40;67.40;;;;;;4953832;28;19942;-73
2023/08/01 12:53:27;;;;;;;;;;;22.30;66.40;;;;;;4954100;28;19978;-73
2023/08/01 12:55:59;;;;;;;;;;;22.10;67.00;;;;;;4966751;28;19930;-72
2023/08/01 12:58:29;;;;;;;;;;;22.00;67.00;;;;;;4953479;28;19989;-71
2023/08/01 13:00:56;;;;;;;;;;;21.70;68.40;;;;;;4954748;28;19930;-73
2023/08/01 13:03:25;;;;;;;;;;;21.60;69.40;;;;;;4953358;28;19934;-72
2023/08/01 13:05:53;;;;;;;;;;;21.60;70.30;;;;;;4954010;28;20001;-73
2023/08/01 13:08:21;;;;;;;;;;;21.70;70.70;;;;;;4953856;28;20525;-72
2023/08/01 13:10:54;;;;;;;;;;;22.00;71.20;;;;;;4953058;28;19930;-73
2023/08/01 13:13:26;;;;;;;;;;;22.10;71.00;;;;;;4954024;28;19934;-73
2023/08/01 13:15:54;;;;;;;;;;;22.10;70.80;;;;;;4969325;28;20017;-73
2023/08/01 13:18:24;;;;;;;;;;;22.10;71.00;;;;;;4953783;28;19985;-72
2023/08/01 13:20:54;;;;;;;;;;;22.10;70.40;;;;;;4954417;28;19926;-73
2023/08/01 13:23:22;;;;;;;;;;;22.10;70.20;;;;;;4953690;28;19931;-73
2023/08/01 13:25:50;;;;;;;;;;;22.00;70.30;;;;;;4953498;28;20033;-73
2023/08/01 13:28:17;;;;;;;;;;;22.00;70.90;;;;;;4953485;28;21192;-73
2023/08/01 13:30:45;;;;;;;;;;;22.00;70.90;;;;;;4953286;28;20353;-72
2023/08/01 13:33:14;;;;;;;;;;;22.00;70.70;;;;;;4952638;28;20338;-72
2023/08/01 13:35:42;;;;;;;;;;;21.90;70.50;;;;;;4953578;28;20377;-73
2023/08/01 13:38:12;;;;;;;;;;;21.90;70.10;;;;;;4952610;28;19937;-72
2023/08/01 13:40:40;;;;;;;;;;;22.00;68.90;;;;;;4952936;28;20266;-73
2023/08/01 13:43:07;;;;;;;;;;;22.00;69.00;;;;;;4954275;28;19965;-73
2023/08/01 13:45:35;;;;;;;;;;;22.10;67.90;;;;;;4952098;28;20293;-73
2023/08/01 13:48:03;;;;;;;;;;;22.10;67.30;;;;;;4953389;28;19938;-73
2023/08/01 13:50:31;;;;;;;;;;;22.10;67.40;;;;;;4953769;28;20282;-74
2023/08/01 13:53:00;;;;;;;;;;;22.10;67.80;;;;;;4952658;28;19930;-73
2023/08/01 13:55:30;;;;;;;;;;;22.10;68.00;;;;;;4953851;28;19962;-73
2023/08/01 13:57:59;;;;;;;;;;;22.10;68.10;;;;;;4953419;28;19926;-71
2023/08/01 14:00:26;;;;;;;;;;;22.20;66.60;;;;;;4952845;28;20016;-72
2023/08/01 14:02:53;;;;;;;;;;;22.20;66.50;;;;;;4952528;28;19934;-72
2023/08/01 14:05:21;;;;;;;;;;;22.20;66.00;;;;;;4952764;28;19930;-73
2023/08/01 14:07:49;;;;;;;;;;;22.30;65.50;;;;;;4953053;28;19961;-71
2023/08/01 14:10:19;;;;;;;;;;;22.30;64.60;;;;;;4953841;28;19934;-73
2023/08/01 14:12:51;;;;;;;;;;;22.30;64.00;;;;;;4953433;28;19930;-72
2023/08/01 14:15:19;;;;;;;;;;;22.30;63.90;;;;;;4940490;28;19935;-72
2023/08/01 14:17:46;;;;;;;;;;;22.30;63.30;;;;;;4934331;29;19927;-73
2023/08/01 14:20:14;;;;;;;;;;;22.20;63.20;;;;;;4940999;28;19974;-71
2023/08/01 14:22:44;;;;;;;;;;;22.20;63.50;;;;;;4934405;28;19931;-72
2023/08/01 14:25:12;;;;;;;;;;;22.20;63.70;;;;;;4953050;28;19930;-71
2023/08/01 14:27:40;;;;;;;;;;;22.30;63.10;;;;;;4952020;28;19930;-72
2023/08/01 14:30:10;;;;;;;;;;;22.40;63.40;;;;;;4951983;28;20389;-72
2023/08/01 14:32:39;;;;;;;;;;;22.40;63.70;;;;;;4953186;28;19930;-72
2023/08/01 14:35:09;;;;;;;;;;;22.40;63.90;;;;;;4952583;28;19935;-72
2023/08/01 14:37:36;;;;;;;;;;;22.40;63.90;;;;;;4955970;28;19934;-72